Time;durP1;ratioP1;P1;durP2;ratioP2;P2;SDS_P1;SDS_P2;PMS_P1;PMS_P2;Temp;Humidity;BMP_temperature;BMP_pressure;BME280_temperature;BME280_humidity;BME280_pressure;Samples;Min_cycle;Max_cycle;Signal;HPM_P1;HPM_P2
2021/11/24 00:01:44;;;;;;;6.23;4.80;;;;;;;-3.49;88.25;98770.63;6121644;29;20330;-69
2021/11/24 00:04:47;;;;;;;8.23;4.97;;;;;;;-3.49;88.25;98767.19;6106820;29;20203;-69
2021/11/24 00:07:49;;;;;;;7.10;5.00;;;;;;;-3.46;88.21;98762.00;6121481;29;20210;-70
2021/11/24 00:10:51;;;;;;;8.27;4.90;;;;;;;-3.48;87.86;98748.25;6123020;29;20197;-70
2021/11/24 00:13:55;;;;;;;7.80;4.60;;;;;;;-3.51;88.03;98758.63;6122845;29;20334;-70
2021/11/24 00:16:57;;;;;;;6.93;5.00;;;;;;;-3.54;87.63;98759.50;6122064;29;20551;-69
2021/11/24 00:20:00;;;;;;;7.27;4.80;;;;;;;-3.55;88.38;98754.34;6121351;29;20734;-69
2021/11/24 00:23:02;;;;;;;7.57;5.00;;;;;;;-3.56;88.23;98750.06;6121409;29;20603;-70
2021/11/24 00:26:05;;;;;;;6.77;4.30;;;;;;;-3.57;88.24;98749.19;6122127;29;20191;-69
2021/11/24 00:29:07;;;;;;;5.70;4.00;;;;;;;-3.60;88.04;98751.81;6120031;29;20680;-69
2021/11/24 00:32:09;;;;;;;6.20;4.33;;;;;;;-3.65;88.32;98742.38;6122583;29;20635;-70
2021/11/24 00:35:12;;;;;;;5.13;3.77;;;;;;;-3.68;88.73;98742.38;6122495;29;20569;-70
2021/11/24 00:38:14;;;;;;;6.90;4.40;;;;;;;-3.74;88.30;98744.16;6121829;29;20679;-69
2021/11/24 00:41:16;;;;;;;6.33;3.90;;;;;;;-3.75;88.21;98744.16;6122365;29;20214;-69
2021/11/24 00:44:19;;;;;;;7.10;4.10;;;;;;;-3.80;87.89;98751.94;6122509;29;20201;-70
2021/11/24 00:47:21;;;;;;;5.43;4.13;;;;;;;-3.80;88.04;98745.94;6125768;29;20195;-70
2021/11/24 00:50:23;;;;;;;5.77;3.93;;;;;;;-3.80;87.90;98748.50;6127436;29;20611;-69
2021/11/24 00:53:25;;;;;;;6.13;3.70;;;;;;;-3.86;88.04;98746.81;6127296;29;20200;-69
2021/11/24 00:56:28;;;;;;;7.20;3.80;;;;;;;-3.90;88.24;98736.53;6128061;29;20443;-70
2021/11/24 00:59:30;;;;;;;5.10;3.80;;;;;;;-3.92;88.19;98739.13;6127052;29;20643;-70
2021/11/24 01:02:32;;;;;;;5.27;4.00;;;;;;;-3.95;88.23;98743.44;6127046;29;20202;-70
2021/11/24 01:05:35;;;;;;;5.67;4.20;;;;;;;-3.98;88.20;98735.69;6125705;29;20199;-70
2021/11/24 01:08:37;;;;;;;7.03;4.10;;;;;;;-4.01;87.65;98740.91;6110941;29;20211;-70
2021/11/24 01:11:40;;;;;;;6.47;4.20;;;;;;;-4.02;88.29;98739.19;6126495;29;20205;-70
2021/11/24 01:14:42;;;;;;;4.90;3.80;;;;;;;-4.06;88.09;98734.88;6127437;29;20200;-70
2021/11/24 01:17:45;;;;;;;6.57;3.80;;;;;;;-4.09;88.10;98731.47;6127079;29;20195;-69
2021/11/24 01:20:47;;;;;;;5.87;4.07;;;;;;;-4.09;87.61;98728.88;6126333;29;20759;-70
2021/11/24 01:23:50;;;;;;;4.90;3.77;;;;;;;-4.11;87.53;98729.78;6125618;29;20578;-69
2021/11/24 01:26:52;;;;;;;6.63;4.13;;;;;;;-4.11;88.36;98724.63;6126464;29;20191;-70
2021/11/24 01:29:54;;;;;;;5.37;4.20;;;;;;;-4.14;87.47;98725.47;6126914;29;20227;-70
2021/11/24 01:32:56;;;;;;;5.33;3.60;;;;;;;-4.16;87.79;98716.91;6126370;29;20195;-70
2021/11/24 01:35:59;;;;;;;6.70;4.30;;;;;;;-4.16;87.75;98716.91;6124955;29;20258;-70
2021/11/24 01:39:02;;;;;;;5.13;4.20;;;;;;;-4.18;87.56;98718.63;6126689;29;20218;-69
2021/11/24 01:42:04;;;;;;;6.10;3.90;;;;;;;-4.18;87.55;98715.19;6125636;29;20250;-70
2021/11/24 01:45:09;;;;;;;7.53;4.17;;;;;;;-4.19;87.98;98711.75;6126620;29;20644;-70
2021/11/24 01:48:11;;;;;;;5.23;4.13;;;;;;;-4.18;88.07;98715.19;6126648;29;20199;-70
2021/11/24 01:51:13;;;;;;;4.80;3.60;;;;;;;-4.19;87.97;98710.91;6124598;29;20203;-70
2021/11/24 01:54:16;;;;;;;5.43;3.53;;;;;;;-4.17;87.55;98711.75;6126387;29;20191;-70
2021/11/24 01:57:20;;;;;;;4.83;3.47;;;;;;;-4.18;88.25;98708.31;6125026;29;20274;-70
2021/11/24 02:00:26;;;;;;;5.37;3.83;;;;;;;-4.19;87.93;98706.59;6125829;29;20749;-70
2021/11/24 02:03:29;;;;;;;4.33;3.53;;;;;;;-4.26;88.01;98704.94;6124356;29;20203;-70
2021/11/24 02:06:31;;;;;;;5.07;3.60;;;;;;;-4.29;87.50;98694.63;6124784;29;20207;-69
2021/11/24 02:09:33;;;;;;;8.93;3.80;;;;;;;-4.33;87.30;98692.94;6126013;29;20266;-70
2021/11/24 02:12:36;;;;;;;4.90;3.57;;;;;;;-4.36;87.96;98692.09;6125065;29;20206;-70
2021/11/24 02:15:38;;;;;;;5.10;3.50;;;;;;;-4.39;87.58;98692.13;6108938;29;20210;-70
2021/11/24 02:18:41;;;;;;;6.13;4.63;;;;;;;-4.39;87.63;98682.66;6125713;29;20227;-70
2021/11/24 02:21:50;;;;;;;6.23;4.47;;;;;;;-4.41;87.24;98681.84;6125783;29;20582;-70
2021/11/24 02:24:52;;;;;;;6.47;3.73;;;;;;;-4.41;87.20;98670.66;6124324;29;20188;-70
2021/11/24 02:27:54;;;;;;;4.90;3.23;;;;;;;-4.40;87.90;98674.97;6125101;29;20253;-70
2021/11/24 02:30:56;;;;;;;5.27;3.83;;;;;;;-4.42;87.97;98667.25;6123802;29;20235;-70
2021/11/24 02:33:59;;;;;;;4.90;3.47;;;;;;;-4.40;88.18;98665.50;6125158;29;20282;-70
2021/11/24 02:37:01;;;;;;;4.93;3.20;;;;;;;-4.40;87.98;98675.81;6125399;29;20576;-70
2021/11/24 02:40:04;;;;;;;8.27;3.70;;;;;;;-4.41;88.02;98668.94;6107951;29;20237;-70
2021/11/24 02:43:06;;;;;;;5.53;3.70;;;;;;;-4.43;87.68;98670.66;6124560;29;20270;-70
2021/11/24 02:46:09;;;;;;;5.57;3.90;;;;;;;-4.47;87.82;98664.66;6124108;29;20664;-70
2021/11/24 02:49:12;;;;;;;6.17;3.57;;;;;;;-4.48;87.15;98665.53;6123733;29;20334;-70
2021/11/24 02:52:16;;;;;;;4.57;3.33;;;;;;;-4.52;87.21;98663.00;6124801;29;20693;-69
2021/11/24 02:55:19;;;;;;;5.87;4.23;;;;;;;-4.56;87.56;98659.56;6123084;29;20734;-70
2021/11/24 02:58:21;;;;;;;5.53;4.03;;;;;;;-4.56;87.68;98649.25;6125047;29;20206;-70
2021/11/24 03:01:23;;;;;;;5.83;4.33;;;;;;;-4.57;87.72;98650.13;6123076;29;20227;-70
2021/11/24 03:04:31;;;;;;;5.37;4.07;;;;;;;-4.57;87.86;98646.69;6122936;29;20222;-70
2021/11/24 03:07:33;;;;;;;4.43;3.70;;;;;;;-4.57;87.66;98652.69;6123141;29;20233;-70
2021/11/24 03:10:35;;;;;;;6.33;4.33;;;;;;;-4.60;87.89;98655.31;6123891;29;20463;-70
2021/11/24 03:13:37;;;;;;;6.53;3.90;;;;;;;-4.60;87.27;98647.59;6123294;29;20684;-70
2021/11/24 03:16:39;;;;;;;6.23;4.27;;;;;;;-4.58;87.78;98650.97;6123264;29;20626;-69
2021/11/24 03:19:44;;;;;;;6.73;4.57;;;;;;;-4.60;87.51;98647.59;6124034;29;20229;-70
2021/11/24 03:22:46;;;;;;;6.43;3.90;;;;;;;-4.62;87.72;98644.16;6122591;29;20292;-70
2021/11/24 03:25:48;;;;;;;7.20;4.03;;;;;;;-4.64;87.43;98642.44;6123581;29;20680;-70
2021/11/24 03:28:51;;;;;;;5.33;3.93;;;;;;;-4.66;87.45;98642.44;6124326;29;20195;-70
2021/11/24 03:31:53;;;;;;;6.50;4.27;;;;;;;-4.69;87.48;98639.88;6123655;29;20258;-70
2021/11/24 03:34:55;;;;;;;7.00;4.40;;;;;;;-4.70;87.00;98640.75;6123465;29;20191;-70
2021/11/24 03:37:58;;;;;;;5.50;4.40;;;;;;;-4.70;87.09;98642.47;6123894;29;20327;-70
2021/11/24 03:41:00;;;;;;;6.90;4.10;;;;;;;-4.70;87.59;98642.47;6123265;29;20757;-70
2021/11/24 03:44:02;;;;;;;6.03;4.20;;;;;;;-4.72;87.11;98634.75;6100423;29;20200;-70
2021/11/24 03:47:05;;;;;;;7.43;4.37;;;;;;;-4.71;87.28;98636.47;6120443;29;20282;-70
2021/11/24 03:50:08;;;;;;;6.63;5.00;;;;;;;-4.71;87.58;98631.31;6122480;29;20346;-70
2021/11/24 03:53:10;;;;;;;7.17;4.57;;;;;;;-4.66;87.10;98631.28;6123442;29;20203;-70
2021/11/24 03:56:12;;;;;;;7.40;5.00;;;;;;;-4.66;87.41;98624.41;6123152;29;20750;-69
2021/11/24 03:59:15;;;;;;;7.27;4.03;;;;;;;-4.63;87.54;98620.97;6123456;29;20202;-70
2021/11/24 04:02:17;;;;;;;7.83;4.50;;;;;;;-4.67;87.88;98625.28;6121509;29;20286;-69
2021/11/24 04:05:19;;;;;;;8.57;4.70;;;;;;;-4.67;87.76;98624.41;6123207;29;20195;-70
2021/11/24 04:08:21;;;;;;;7.30;4.23;;;;;;;-4.67;87.52;98617.56;6122184;29;20289;-70
2021/11/24 04:11:23;;;;;;;6.23;4.33;;;;;;;-4.68;88.06;98630.44;6122585;29;20210;-70
2021/11/24 04:14:26;;;;;;;6.10;4.50;;;;;;;-4.71;87.99;98633.91;6123453;29;20568;-70
2021/11/24 04:17:28;;;;;;;6.17;4.10;;;;;;;-4.71;88.05;98627.91;6122432;29;20525;-70
2021/11/24 04:20:30;;;;;;;7.27;4.70;;;;;;;-4.71;87.82;98625.31;6122485;29;20219;-70
2021/11/24 04:23:32;;;;;;;5.93;4.27;;;;;;;-4.72;88.06;98626.19;6123133;29;20191;-70
2021/11/24 04:26:35;;;;;;;6.27;4.17;;;;;;;-4.73;88.26;98624.47;6122453;29;20897;-70
2021/11/24 04:29:37;;;;;;;5.60;3.93;;;;;;;-4.76;87.92;98621.88;6122994;29;20645;-69
2021/11/24 04:32:39;;;;;;;9.00;4.13;;;;;;;-4.80;87.81;98615.06;6122300;29;20541;-70
2021/11/24 04:35:41;;;;;;;10.40;4.33;;;;;;;-4.80;88.08;98627.94;6121766;29;20668;-70
2021/11/24 04:38:43;;;;;;;6.53;4.27;;;;;;;-4.82;88.34;98624.50;6121980;29;20738;-69
2021/11/24 04:41:46;;;;;;;5.87;3.90;;;;;;;-4.85;88.18;98617.63;6105920;29;20704;-70
2021/11/24 04:44:48;;;;;;;5.40;3.97;;;;;;;-4.87;87.98;98627.09;6127965;29;20613;-70
2021/11/24 04:47:50;;;;;;;7.37;4.50;;;;;;;-4.87;87.60;98629.66;6121025;29;20223;-70
2021/11/24 04:50:52;;;;;;;6.60;4.33;;;;;;;-4.89;88.09;98621.94;6121078;29;20199;-70
2021/11/24 04:53:54;;;;;;;6.63;4.60;;;;;;;-4.91;87.78;98623.69;6122487;29;20196;-69
2021/11/24 04:56:57;;;;;;;7.40;4.73;;;;;;;-4.95;87.86;98624.53;6122666;29;20199;-70
2021/11/24 04:59:59;;;;;;;6.90;4.00;;;;;;;-4.97;87.79;98621.13;6121683;29;20215;-70
2021/11/24 05:03:01;;;;;;;5.10;4.20;;;;;;;-4.98;87.47;98615.97;6120867;29;20211;-70
2021/11/24 05:06:03;;;;;;;7.67;3.47;;;;;;;-4.99;87.32;98622.84;6122325;29;20684;-69
2021/11/24 05:09:07;;;;;;;5.97;4.07;;;;;;;-4.99;87.99;98620.25;6122330;29;20273;-70
2021/11/24 05:12:09;;;;;;;5.60;3.70;;;;;;;-4.97;87.69;98621.13;6121186;29;20207;-70
2021/11/24 05:15:27;;;;;;;6.40;4.10;;;;;;;-4.95;87.46;98626.25;6122707;29;20597;-70
2021/11/24 05:18:42;;;;;;;7.03;4.20;;;;;;;-4.95;87.95;98621.13;6122019;29;20192;-70
2021/11/24 05:21:50;;;;;;;6.53;4.43;;;;;;;-4.98;87.99;98623.69;6122187;29;20204;-70
2021/11/24 05:24:52;;;;;;;6.17;3.97;;;;;;;-5.01;87.60;98618.56;6120981;29;20203;-70
2021/11/24 05:27:55;;;;;;;4.93;3.67;;;;;;;-5.03;87.89;98622.88;6122269;29;20659;-70
2021/11/24 05:30:58;;;;;;;5.37;4.30;;;;;;;-5.05;87.34;98622.88;6112605;29;20235;-70
2021/11/24 05:34:03;;;;;;;6.70;3.97;;;;;;;-5.06;87.70;98617.72;6121896;29;20681;-70
2021/11/24 05:37:07;;;;;;;7.83;4.07;;;;;;;-5.09;87.48;98615.19;6126563;29;20716;-70
2021/11/24 05:40:09;;;;;;;5.83;3.13;;;;;;;-5.10;87.79;98623.75;6140862;28;20302;-71
2021/11/24 05:43:13;;;;;;;6.83;3.60;;;;;;;-5.10;88.14;98622.03;6126575;29;20214;-70
2021/11/24 05:46:22;;;;;;;5.27;3.77;;;;;;;-5.07;87.27;98616.88;6125982;29;20199;-70
2021/11/24 05:49:26;;;;;;;6.03;3.53;;;;;;;-5.09;87.58;98617.75;6125336;29;20199;-69
2021/11/24 05:52:28;;;;;;;4.90;3.47;;;;;;;-5.10;87.89;98614.31;6126493;29;20534;-70
2021/11/24 05:55:31;;;;;;;5.17;3.40;;;;;;;-5.10;87.86;98616.03;6124866;29;20202;-70
2021/11/24 05:58:33;;;;;;;5.53;3.80;;;;;;;-5.09;87.78;98616.00;6126358;29;20197;-69
2021/11/24 06:01:36;;;;;;;5.70;3.83;;;;;;;-5.08;87.94;98616.88;6124112;29;20222;-70
2021/11/24 06:04:38;;;;;;;7.73;3.70;;;;;;;-5.09;87.71;98616.00;6126204;29;20200;-69
2021/11/24 06:07:41;;;;;;;5.27;3.17;;;;;;;-5.06;87.98;98613.44;6125531;29;20191;-70
2021/11/24 06:10:45;;;;;;;5.63;3.90;;;;;;;-5.03;87.64;98622.88;6126101;29;20267;-70
2021/11/24 06:13:47;;;;;;;6.77;3.80;;;;;;;-5.00;87.56;98617.72;6125958;29;20679;-70
2021/11/24 06:16:49;;;;;;;5.07;3.27;;;;;;;-4.97;87.75;98620.25;6125230;29;20672;-70
2021/11/24 06:19:52;;;;;;;5.33;3.50;;;;;;;-4.93;87.53;98622.81;6125953;29;20694;-70
2021/11/24 06:22:55;;;;;;;4.67;3.50;;;;;;;-4.88;87.39;98626.22;6125204;29;20566;-70
2021/11/24 06:25:57;;;;;;;5.57;3.30;;;;;;;-4.78;87.08;98623.59;6125798;29;20226;-70
2021/11/24 06:28:59;;;;;;;5.90;3.50;;;;;;;-4.68;87.34;98623.56;6124191;29;20223;-70
2021/11/24 06:32:02;;;;;;;6.40;3.63;;;;;;;-4.56;87.07;98620.94;6124514;29;20792;-70
2021/11/24 06:35:05;;;;;;;6.20;3.90;;;;;;;-4.40;87.20;98620.88;6125029;29;20191;-70
2021/11/24 06:38:08;;;;;;;4.83;3.73;;;;;;;-4.25;87.22;98618.19;6125176;29;20195;-70
2021/11/24 06:41:10;;;;;;;7.43;3.90;;;;;;;-4.11;87.08;98621.53;6118789;29;20298;-70
2021/11/24 06:44:12;;;;;;;8.93;4.67;;;;;;;-3.95;87.15;98617.97;6124406;29;20710;-70
2021/11/24 06:47:16;;;;;;;6.70;4.73;;;;;;;-3.78;87.05;98616.09;6122788;29;20200;-70
2021/11/24 06:50:18;;;;;;;9.00;5.83;;;;;;;-3.60;86.99;98621.97;6124527;29;20202;-69
2021/11/24 06:53:20;;;;;;;5.40;4.13;;;;;;;-3.48;87.66;98620.13;6122726;29;20207;-70
2021/11/24 06:56:23;;;;;;;6.17;4.53;;;;;;;-3.35;87.23;98616.56;6123373;29;20203;-70
2021/11/24 06:59:25;;;;;;;6.37;4.50;;;;;;;-3.19;87.07;98630.16;6122892;29;20214;-71
2021/11/24 07:02:27;;;;;;;6.03;4.30;;;;;;;-3.05;87.08;98625.72;6123742;29;20691;-71
2021/11/24 07:05:29;;;;;;;7.50;5.03;;;;;;;-2.90;87.31;98618.66;6123142;29;20303;-70
2021/11/24 07:08:32;;;;;;;7.90;4.60;;;;;;;-2.79;87.20;98627.97;6123688;29;20587;-70
2021/11/24 07:11:34;;;;;;;6.50;4.87;;;;;;;-2.66;87.32;98623.53;6123940;29;20188;-70
2021/11/24 07:14:36;;;;;;;7.07;5.00;;;;;;;-2.56;87.01;98627.69;6123850;29;20195;-70
2021/11/24 07:17:38;;;;;;;7.03;5.43;;;;;;;-2.46;87.12;98626.69;6122483;29;20751;-69
2021/11/24 07:20:41;;;;;;;8.03;4.70;;;;;;;-2.37;87.36;98630.88;6122488;29;20207;-69
2021/11/24 07:23:43;;;;;;;5.93;4.20;;;;;;;-2.26;87.14;98626.44;6123534;29;20191;-70
2021/11/24 07:26:46;;;;;;;6.97;5.50;;;;;;;-2.16;87.02;98628.00;6122471;29;20741;-69
2021/11/24 07:29:48;;;;;;;7.83;5.83;;;;;;;-2.05;87.15;98623.53;6122793;29;20667;-69
2021/11/24 07:32:50;;;;;;;11.30;5.97;;;;;;;-1.94;87.19;98626.81;6120496;29;20282;-69
2021/11/24 07:35:53;;;;;;;7.47;5.77;;;;;;;-1.84;87.24;98627.53;6123795;29;20226;-69
2021/11/24 07:38:55;;;;;;;9.03;5.53;;;;;;;-1.72;87.39;98617.00;6137640;29;20245;-69
2021/11/24 07:41:57;;;;;;;7.27;5.30;;;;;;;-1.60;87.12;98618.53;6123018;29;20207;-69
2021/11/24 07:45:00;;;;;;;9.23;5.27;;;;;;;-1.48;87.25;98626.06;6123177;29;20195;-70
2021/11/24 07:48:02;;;;;;;10.30;5.93;;;;;;;-1.38;87.45;98612.06;6123139;29;20207;-69
2021/11/24 07:51:05;;;;;;;10.17;7.13;;;;;;;-1.25;87.52;98610.97;6122941;29;20195;-69
2021/11/24 07:54:07;;;;;;;9.53;5.43;;;;;;;-1.11;87.14;98610.75;6122889;29;20199;-69
2021/11/24 07:57:10;;;;;;;9.60;5.93;;;;;;;-1.01;87.28;98601.91;6122272;29;20192;-69
2021/11/24 08:00:12;;;;;;;8.33;5.87;;;;;;;-0.90;87.04;98599.09;6120978;29;20275;-69
2021/11/24 08:03:14;;;;;;;8.80;6.37;;;;;;;-0.77;87.24;98592.78;6122942;29;20689;-69
2021/11/24 08:06:17;;;;;;;6.60;4.90;;;;;;;-0.62;87.37;98589.03;6122754;29;20192;-69
2021/11/24 08:09:19;;;;;;;6.50;5.03;;;;;;;-0.51;87.02;98584.47;6122741;29;20195;-69
2021/11/24 08:12:21;;;;;;;8.60;5.67;;;;;;;-0.40;86.98;98580.72;6122548;29;20199;-69
2021/11/24 08:15:23;;;;;;;9.87;6.27;;;;;;;-0.26;86.98;98575.25;6122528;29;20210;-69
2021/11/24 08:18:26;;;;;;;7.93;5.17;;;;;;;-0.08;87.08;98569.63;6122790;29;20188;-68
2021/11/24 08:21:32;;;;;;;7.10;4.40;;;;;;;0.04;86.65;98567.63;6120842;29;20212;-69
2021/11/24 08:24:34;;;;;;;9.43;5.37;;;;;;;0.17;86.31;98561.25;6122967;29;20674;-69
2021/11/24 08:27:37;;;;;;;5.97;4.57;;;;;;;0.26;86.17;98572.28;6117314;29;20203;-69
2021/11/24 08:30:39;;;;;;;8.57;4.80;;;;;;;0.44;86.16;98567.50;6121741;29;20227;-69
2021/11/24 08:33:41;;;;;;;4.30;3.57;;;;;;;0.61;86.35;98563.56;6121665;29;20210;-69
2021/11/24 08:36:44;;;;;;;4.57;3.90;;;;;;;0.72;86.19;98563.28;6120865;29;20571;-69
2021/11/24 08:39:48;;;;;;;6.47;4.20;;;;;;;0.86;85.65;98561.16;6121112;29;20276;-69
2021/11/24 08:42:50;;;;;;;4.90;4.10;;;;;;;0.96;85.06;98554.81;6122106;29;20257;-69
2021/11/24 08:45:52;;;;;;;4.10;3.50;;;;;;;1.10;85.87;98557.88;6120700;29;20278;-69
2021/11/24 08:48:55;;;;;;;5.53;3.87;;;;;;;1.27;85.33;98548.75;6122586;29;20249;-69
2021/11/24 08:51:57;;;;;;;5.10;4.00;;;;;;;1.47;85.59;98552.47;6122002;29;20195;-69
2021/11/24 08:54:59;;;;;;;4.73;3.73;;;;;;;1.69;84.96;98551.81;6122567;29;20251;-69
2021/11/24 08:58:02;;;;;;;5.67;4.37;;;;;;;1.90;85.05;98548.53;6121870;29;20282;-69
2021/11/24 09:01:04;;;;;;;5.93;3.87;;;;;;;2.04;84.39;98548.09;6122149;29;20549;-69
2021/11/24 09:04:06;;;;;;;4.67;3.27;;;;;;;2.23;84.34;98541.38;6122347;29;20652;-69
2021/11/24 09:07:09;;;;;;;4.03;3.27;;;;;;;2.41;84.22;98542.50;6122733;29;20210;-70
2021/11/24 09:10:11;;;;;;;3.93;3.03;;;;;;;2.53;83.72;98535.13;6109401;29;20585;-70
2021/11/24 09:13:13;;;;;;;4.50;2.87;;;;;;;2.62;83.77;98530.50;6125084;29;20198;-70
2021/11/24 09:16:15;;;;;;;5.13;3.63;;;;;;;2.72;83.38;98532.75;6126940;29;20200;-69
2021/11/24 09:19:18;;;;;;;4.93;3.70;;;;;;;2.80;82.86;98522.88;6125419;29;20192;-70
2021/11/24 09:22:20;;;;;;;5.40;4.03;;;;;;;2.90;83.38;98523.41;6125714;29;20207;-69
2021/11/24 09:25:35;;;;;;;5.53;4.10;;;;;;;2.95;83.00;98516.28;6126837;29;20187;-69
2021/11/24 09:28:37;;;;;;;6.23;5.23;;;;;;;2.97;82.04;98509.28;6117080;29;20204;-69
2021/11/24 09:31:40;;;;;;;6.73;5.43;;;;;;;2.99;81.94;98523.09;6121269;29;20318;-69
2021/11/24 09:34:42;;;;;;;7.07;6.07;;;;;;;3.03;81.18;98524.69;6125224;29;20208;-69
2021/11/24 09:37:44;;;;;;;8.30;6.23;;;;;;;3.04;81.30;98517.72;6124738;29;20205;-69
2021/11/24 09:40:50;;;;;;;7.83;5.73;;;;;;;3.10;81.15;98507.03;6125636;29;20644;-69
2021/11/24 09:43:55;;;;;;;7.07;5.53;;;;;;;3.16;80.46;98507.69;6126019;29;20197;-69
2021/11/24 09:46:59;;;;;;;10.80;6.43;;;;;;;3.29;80.44;98508.09;6126336;29;20221;-69
2021/11/24 09:50:05;;;;;;;11.90;6.23;;;;;;;3.39;79.26;98501.59;6125525;29;20283;-70
2021/11/24 09:53:12;;;;;;;7.97;5.73;;;;;;;3.49;78.79;98491.66;6125926;29;20185;-69
2021/11/24 09:56:14;;;;;;;9.33;6.53;;;;;;;3.63;78.88;98491.94;6126430;29;20192;-70
2021/11/24 09:59:16;;;;;;;7.07;5.70;;;;;;;3.83;78.69;98492.00;6140015;29;20234;-69
2021/11/24 10:02:21;;;;;;;9.20;5.80;;;;;;;4.07;77.97;98488.41;6125255;29;20212;-69
2021/11/24 10:05:27;;;;;;;6.00;4.90;;;;;;;4.14;75.89;98486.38;6123912;29;20200;-69
2021/11/24 10:08:33;;;;;;;5.83;4.50;;;;;;;4.33;76.24;98479.47;6125923;29;20934;-69
2021/11/24 10:11:35;;;;;;;5.87;3.77;;;;;;;4.48;73.60;98479.75;6125053;29;20279;-69
2021/11/24 10:14:39;;;;;;;5.93;4.00;;;;;;;4.53;73.64;98475.16;6123903;29;20287;-69
2021/11/24 10:17:41;;;;;;;3.53;2.83;;;;;;;4.47;71.48;98464.97;6125393;29;20705;-69
2021/11/24 10:20:46;;;;;;;4.60;3.60;;;;;;;4.64;71.62;98454.63;6123561;29;20197;-69
2021/11/24 10:23:50;;;;;;;4.80;2.97;;;;;;;4.86;69.91;98451.91;6126155;29;20274;-70
2021/11/24 10:26:52;;;;;;;5.50;3.00;;;;;;;4.93;69.38;98448.09;6125142;29;20208;-69
2021/11/24 10:30:26;;;;;;;3.30;2.70;;;;;;;4.89;68.73;98438.72;6123799;29;20236;-69
2021/11/24 10:33:30;;;;;;;5.30;3.20;;;;;;;4.85;67.60;98430.16;6125040;29;20199;-69
2021/11/24 10:36:33;;;;;;;6.50;3.37;;;;;;;5.04;68.53;98424.91;6123709;29;20213;-69
2021/11/24 10:39:53;;;;;;;4.57;3.30;;;;;;;5.35;67.28;98417.34;6125062;29;20197;-69
2021/11/24 10:43:10;;;;;;;5.67;3.23;;;;;;;5.68;64.86;98421.88;6124117;29;20669;-69
2021/11/24 10:46:17;;;;;;;5.60;3.97;;;;;;;6.04;65.32;98412.22;6125303;29;20217;-70
2021/11/24 10:49:20;;;;;;;7.23;4.60;;;;;;;5.98;65.99;98407.31;6124374;29;20266;-70
2021/11/24 10:52:26;;;;;;;4.40;3.60;;;;;;;5.90;65.18;98402.41;6124165;29;20671;-70
2021/11/24 10:55:31;;;;;;;7.47;4.30;;;;;;;5.74;64.85;98405.84;6123629;29;20190;-70
2021/11/24 10:58:37;;;;;;;4.30;3.50;;;;;;;5.66;65.10;98403.63;6125203;29;20203;-69
2021/11/24 11:01:39;;;;;;;9.90;4.27;;;;;;;5.68;64.18;98399.16;6138564;28;20718;-69
2021/11/24 11:05:04;;;;;;;5.63;4.23;;;;;;;5.61;65.28;98395.13;6124221;29;20341;-69
2021/11/24 11:08:08;;;;;;;6.50;4.30;;;;;;;5.68;64.91;98391.31;6124783;29;20652;-69
2021/11/24 11:11:30;;;;;;;4.67;3.90;;;;;;;5.72;63.87;98376.25;6138088;29;20199;-69
2021/11/24 11:14:32;;;;;;;5.47;4.33;;;;;;;5.49;64.71;98374.81;6139063;29;20195;-70
2021/11/24 11:18:04;;;;;;;5.37;4.20;;;;;;;5.44;65.96;98382.00;6122635;29;20205;-70
2021/11/24 11:21:11;;;;;;;5.70;4.77;;;;;;;4.81;65.70;98374.50;6123256;29;20217;-70
2021/11/24 11:24:13;;;;;;;5.43;4.20;;;;;;;4.97;67.88;98371.19;6122751;29;20229;-69
2021/11/24 11:27:16;;;;;;;6.23;4.03;;;;;;;5.34;66.49;98365.06;6123453;29;20566;-70
2021/11/24 11:30:18;;;;;;;7.43;4.60;;;;;;;5.71;64.44;98359.69;6123421;29;20622;-70
2021/11/24 11:33:25;;;;;;;5.17;4.43;;;;;;;5.52;64.63;98364.16;6123062;29;20190;-70
2021/11/24 11:36:27;;;;;;;6.37;4.50;;;;;;;5.51;65.29;98360.69;6124001;29;20180;-69
2021/11/24 11:39:29;;;;;;;6.53;4.67;;;;;;;5.64;65.22;98347.84;6124078;29;20210;-70
2021/11/24 11:42:33;;;;;;;5.50;3.97;;;;;;;5.67;65.04;98342.47;6122542;29;20219;-70
2021/11/24 11:45:55;;;;;;;4.97;4.03;;;;;;;5.46;65.03;98339.13;6123805;29;20210;-70
2021/11/24 11:49:18;;;;;;;4.67;4.13;;;;;;;6.06;63.71;98336.16;6123166;29;20735;-70
2021/11/24 11:52:20;;;;;;;6.53;4.53;;;;;;;6.73;62.71;98327.34;6123009;29;20190;-70
2021/11/24 11:55:22;;;;;;;4.40;3.70;;;;;;;6.75;61.86;98321.09;6123283;29;20206;-70
2021/11/24 11:58:27;;;;;;;5.33;4.17;;;;;;;6.57;62.70;98319.47;6122863;29;20202;-70
2021/11/24 12:01:51;;;;;;;4.73;4.23;;;;;;;6.39;62.99;98308.16;6123134;29;20207;-70
2021/11/24 12:05:04;;;;;;;4.17;3.77;;;;;;;6.41;62.71;98308.94;6121466;29;20575;-70
2021/11/24 12:08:10;;;;;;;5.83;4.30;;;;;;;6.26;62.00;98308.00;6123278;29;20648;-70
2021/11/24 12:11:12;;;;;;;5.17;3.90;;;;;;;5.78;63.70;98303.50;6122716;29;20172;-70
2021/11/24 12:14:45;;;;;;;6.30;4.20;;;;;;;5.82;63.44;98291.06;6122907;29;20195;-69
2021/11/24 12:18:11;;;;;;;4.50;3.90;;;;;;;5.93;63.53;98288.78;6121524;29;20203;-70
2021/11/24 12:21:22;;;;;;;6.43;3.70;;;;;;;6.01;63.04;98278.75;6122271;29;20191;-70
2021/11/24 12:24:41;;;;;;;5.23;3.77;;;;;;;5.82;63.42;98278.81;6121641;29;20207;-70
2021/11/24 12:27:57;;;;;;;5.83;4.13;;;;;;;5.58;63.96;98274.88;6122517;29;20702;-72
2021/11/24 12:31:03;;;;;;;4.03;3.60;;;;;;;5.47;63.76;98277.16;6122188;29;20242;-70
2021/11/24 12:34:07;;;;;;;3.43;3.10;;;;;;;5.53;63.79;98267.22;6120800;29;20211;-70
2021/11/24 12:37:30;;;;;;;5.53;3.67;;;;;;;5.45;64.08;98272.00;6122521;29;20195;-70
2021/11/24 12:40:35;;;;;;;4.63;3.70;;;;;;;6.00;63.00;98263.09;6115337;29;20285;-70
2021/11/24 12:43:41;;;;;;;4.03;3.17;;;;;;;6.77;60.81;98252.81;6128722;29;20585;-70
2021/11/24 12:46:45;;;;;;;5.33;3.80;;;;;;;6.65;60.42;98254.31;6129199;29;20195;-70
2021/11/24 12:49:48;;;;;;;4.83;3.50;;;;;;;8.74;55.87;98242.69;6129576;29;20209;-70
2021/11/24 12:53:00;;;;;;;7.43;3.73;;;;;;;10.51;49.43;98228.91;6130131;29;20188;-70
2021/11/24 12:56:26;;;;;;;7.00;3.80;;;;;;;10.46;49.19;98228.41;6129949;29;20183;-70
2021/11/24 12:59:33;;;;;;;7.83;3.90;;;;;;;8.91;53.06;98223.16;6130842;29;20620;-70
2021/11/24 13:02:36;;;;;;;6.37;4.43;;;;;;;7.54;56.46;98229.94;6129631;29;20207;-70
2021/11/24 13:05:39;;;;;;;5.33;3.93;;;;;;;6.45;60.16;98231.81;6130197;29;20199;-70
2021/11/24 13:08:43;;;;;;;5.53;4.13;;;;;;;5.95;62.37;98221.44;6130146;29;20195;-69
2021/11/24 13:11:54;;;;;;;6.57;4.27;;;;;;;5.49;63.22;98229.03;6129368;29;20319;-70
2021/11/24 13:14:58;;;;;;;7.20;4.50;;;;;;;5.12;64.84;98222.19;6130067;29;20629;-69
2021/11/24 13:18:23;;;;;;;4.97;4.33;;;;;;;4.94;65.15;98220.50;6128463;29;20207;-70
2021/11/24 13:21:31;;;;;;;5.87;4.70;;;;;;;4.89;66.23;98221.66;6129663;29;20207;-70
2021/11/24 13:24:33;;;;;;;5.60;4.27;;;;;;;4.83;65.89;98220.16;6129765;29;20741;-70
2021/11/24 13:27:38;;;;;;;5.03;4.20;;;;;;;4.75;67.24;98212.69;6129822;29;20187;-70
2021/11/24 13:30:49;;;;;;;7.57;4.77;;;;;;;4.64;66.92;98214.13;6129662;29;20241;-70
2021/11/24 13:33:52;;;;;;;5.03;4.07;;;;;;;4.49;67.49;98217.50;6128098;29;20234;-70
2021/11/24 13:36:55;;;;;;;4.80;4.30;;;;;;;4.35;68.63;98221.59;6130060;29;20590;-70
2021/11/24 13:39:57;;;;;;;7.27;5.57;;;;;;;4.26;69.03;98208.94;6129491;29;20192;-69
2021/11/24 13:43:00;;;;;;;7.37;6.10;;;;;;;4.20;69.39;98204.00;6129568;29;20304;-70
2021/11/24 13:46:22;;;;;;;7.37;5.60;;;;;;;4.16;69.71;98207.69;6129649;29;20195;-70
2021/11/24 13:49:30;;;;;;;8.93;6.00;;;;;;;4.09;69.08;98204.47;6129347;29;20722;-70
2021/11/24 13:52:36;;;;;;;8.53;6.13;;;;;;;4.04;69.21;98200.41;6129479;29;20202;-70
2021/11/24 13:55:38;;;;;;;9.33;6.17;;;;;;;3.97;70.08;98192.00;6108606;29;20281;-70
2021/11/24 13:58:52;;;;;;;8.93;6.03;;;;;;;3.92;69.69;98191.38;6125928;29;20192;-70
2021/11/24 14:02:00;;;;;;;7.70;5.83;;;;;;;3.91;69.54;98192.28;6123765;29;20214;-70
2021/11/24 14:05:06;;;;;;;9.33;5.97;;;;;;;3.87;69.90;98192.50;6125610;29;20642;-70
2021/11/24 14:08:17;;;;;;;7.20;5.60;;;;;;;3.80;70.68;98183.22;6126038;29;20723;-70
2021/11/24 14:11:37;;;;;;;7.57;5.93;;;;;;;3.65;70.94;98169.97;6124957;29;20577;-69
2021/11/24 14:14:51;;;;;;;7.07;5.53;;;;;;;3.52;71.36;98174.03;6124085;29;20207;-70
2021/11/24 14:18:02;;;;;;;8.30;5.83;;;;;;;3.42;72.31;98174.50;6123719;29;20679;-70
2021/11/24 14:21:06;;;;;;;7.87;6.00;;;;;;;3.31;72.29;98181.03;6125266;29;20209;-70
2021/11/24 14:24:08;;;;;;;6.97;5.27;;;;;;;3.14;72.59;98167.03;6125817;29;20218;-70
2021/11/24 14:27:11;;;;;;;7.50;5.13;;;;;;;2.96;73.54;98171.25;6123862;29;20688;-70
2021/11/24 14:30:16;;;;;;;5.87;5.07;;;;;;;2.80;74.32;98171.03;6124880;29;20255;-70
2021/11/24 14:33:21;;;;;;;6.57;5.40;;;;;;;2.64;74.79;98164.78;6124977;29;20201;-70